Time;durP1;ratioP1;P1;durP2;ratioP2;P2;SDS_P1;SDS_P2;PMS_P1;PMS_P2;Temp;Humidity;BMP_temperature;BMP_pressure;BME280_temperature;BME280_humidity;BME280_pressure;Samples;Min_cycle;Max_cycle;Signal;HPM_P1;HPM_P2
2023/06/20 00:00:31;;;;;;;5.22;4.20;;;20.40;99.90;;;;;;5010822;28;20135;-82
2023/06/20 00:02:57;;;;;;;9.60;4.55;;;20.40;99.90;;;;;;4989793;28;20120;-81
2023/06/20 00:05:22;;;;;;;7.40;4.20;;;20.40;99.90;;;;;;5008965;28;20030;-82
2023/06/20 00:07:54;;;;;;;17.67;4.93;;;20.40;99.90;;;;;;5000455;28;20033;-81
2023/06/20 00:10:19;;;;;;;4.43;4.03;;;20.30;99.90;;;;;;5006475;28;20438;-82
2023/06/20 00:12:45;;;;;;;4.35;3.90;;;20.20;99.90;;;;;;5011303;28;20104;-82
2023/06/20 00:15:11;;;;;;;7.35;4.45;;;20.20;99.90;;;;;;5003103;28;20026;-82
2023/06/20 00:17:38;;;;;;;4.45;3.88;;;20.20;99.90;;;;;;5014028;28;20092;-81
2023/06/20 00:20:08;;;;;;;4.90;3.72;;;20.20;99.90;;;;;;5005047;28;20448;-82
2023/06/20 00:22:34;;;;;;;5.95;4.07;;;20.20;99.90;;;;;;5005879;28;20550;-82
2023/06/20 00:25:02;;;;;;;7.32;4.85;;;20.20;99.90;;;;;;5000924;28;20500;-82
2023/06/20 00:27:28;;;;;;;6.43;4.03;;;20.20;99.90;;;;;;5011560;28;20029;-82
2023/06/20 00:29:53;;;;;;;5.07;4.13;;;20.20;99.90;;;;;;4995405;28;20037;-81
2023/06/20 00:32:19;;;;;;;8.48;4.50;;;20.10;99.90;;;;;;5015674;28;20033;-81
2023/06/20 00:34:45;;;;;;;4.60;4.18;;;20.10;99.90;;;;;;5009348;28;20037;-82
2023/06/20 00:37:10;;;;;;;5.28;4.45;;;20.10;99.90;;;;;;5006695;28;20060;-82
2023/06/20 00:39:36;;;;;;;6.88;4.40;;;20.10;99.90;;;;;;5007732;28;20403;-82
2023/06/20 00:42:01;;;;;;;4.70;4.28;;;20.10;99.90;;;;;;5005970;28;20215;-81
2023/06/20 00:44:28;;;;;;;7.15;4.80;;;20.00;99.90;;;;;;5008947;28;20033;-81
2023/06/20 00:46:54;;;;;;;5.05;3.38;;;20.10;99.90;;;;;;5016445;28;20080;-82
2023/06/20 00:49:20;;;;;;;4.60;3.97;;;20.00;99.90;;;;;;5020310;28;20029;-82
2023/06/20 00:51:46;;;;;;;8.30;4.65;;;20.00;99.90;;;;;;5005977;28;20030;-82
2023/06/20 00:54:11;;;;;;;4.72;4.32;;;20.00;99.90;;;;;;5006710;28;20492;-81
2023/06/20 00:56:38;;;;;;;5.78;4.28;;;19.90;99.90;;;;;;5012960;28;20183;-81
2023/06/20 00:59:04;;;;;;;5.05;4.28;;;19.90;99.90;;;;;;5002234;28;20487;-81
2023/06/20 01:01:31;;;;;;;4.40;4.00;;;19.90;99.90;;;;;;5003697;28;20026;-82
2023/06/20 01:03:58;;;;;;;5.25;4.40;;;19.90;99.90;;;;;;4999040;28;20311;-81
2023/06/20 01:06:37;;;;;;;5.32;4.47;;;19.80;99.90;;;;;;5010025;28;20022;-81
2023/06/20 01:09:20;;;;;;;5.35;4.55;;;19.80;99.90;;;;;;5009390;28;20107;-82
2023/06/20 01:12:09;;;;;;;4.45;4.00;;;19.80;99.90;;;;;;5005166;28;20452;-82
2023/06/20 01:14:53;;;;;;;4.45;4.05;;;19.80;99.90;;;;;;5010923;28;20479;-81
2023/06/20 01:17:30;;;;;;;4.40;4.00;;;19.80;99.90;;;;;;5009319;28;20053;-81
2023/06/20 01:20:20;;;;;;;6.10;4.30;;;19.80;99.90;;;;;;5005259;28;20100;-82
2023/06/20 01:22:59;;;;;;;6.60;4.57;;;19.80;99.90;;;;;;5008007;28;20065;-81
2023/06/20 01:25:46;;;;;;;4.90;4.40;;;19.80;99.90;;;;;;5005210;28;20161;-82
2023/06/20 01:28:22;;;;;;;6.00;4.55;;;19.80;99.90;;;;;;5003399;28;20022;-82
2023/06/20 01:30:54;;;;;;;;;;;19.80;99.90;;;;;;5008817;28;20030;-81
2023/06/20 01:33:28;;;;;;;4.30;3.90;;;19.80;99.90;;;;;;5007596;28;19909;-82
2023/06/20 01:35:55;;;;;;;5.85;4.65;;;19.80;99.90;;;;;;5008335;28;20014;-81
2023/06/20 01:38:24;;;;;;;4.82;3.88;;;19.80;99.90;;;;;;5003118;28;20045;-81
2023/06/20 01:40:51;;;;;;;5.15;4.30;;;19.80;99.90;;;;;;5007370;28;20065;-82
2023/06/20 01:43:20;;;;;;;3.75;3.45;;;19.80;99.90;;;;;;5007892;28;20105;-82
2023/06/20 01:45:49;;;;;;;5.88;3.53;;;19.80;99.90;;;;;;4998183;28;20056;-81
2023/06/20 01:48:16;;;;;;;4.10;3.55;;;19.80;99.90;;;;;;5002442;28;20028;-81
2023/06/20 01:50:46;;;;;;;3.72;3.42;;;19.80;99.90;;;;;;5016866;28;20029;-82
2023/06/20 01:53:13;;;;;;;4.18;3.78;;;19.90;99.90;;;;;;4999258;28;20030;-81
2023/06/20 01:55:41;;;;;;;4.28;3.90;;;19.90;99.90;;;;;;4990276;28;20053;-82
2023/06/20 01:58:07;;;;;;;3.90;3.60;;;19.90;99.90;;;;;;5023003;28;20120;-81
2023/06/20 02:00:34;;;;;;;3.92;3.63;;;19.80;99.90;;;;;;5007451;28;20096;-82
2023/06/20 02:03:01;;;;;;;6.90;3.75;;;19.90;99.90;;;;;;5000904;28;20072;-82
2023/06/20 02:05:30;;;;;;;7.88;4.10;;;19.90;99.90;;;;;;5006508;28;20033;-81
2023/06/20 02:07:57;;;;;;;5.18;4.00;;;19.90;99.90;;;;;;5006115;28;20034;-82
2023/06/20 02:10:24;;;;;;;5.60;3.90;;;19.80;99.90;;;;;;5004845;28;20114;-82
2023/06/20 02:12:53;;;;;;;4.80;4.30;;;19.80;99.90;;;;;;5002535;28;20073;-82
2023/06/20 02:15:20;;;;;;;3.78;3.47;;;19.80;99.90;;;;;;5007703;28;20049;-82
2023/06/20 02:17:46;;;;;;;7.15;4.05;;;19.80;99.90;;;;;;5006333;28;20076;-82
2023/06/20 02:20:12;;;;;;;6.28;3.50;;;19.70;99.90;;;;;;5001939;28;20385;-82
2023/06/20 02:22:46;;;;;;;4.30;3.50;;;19.70;99.90;;;;;;5002301;28;20026;-82
2023/06/20 02:25:21;;;;;;;5.65;3.88;;;19.70;99.90;;;;;;4997536;28;20116;-81
2023/06/20 02:27:48;;;;;;;3.63;3.33;;;19.70;99.90;;;;;;4999663;28;20029;-82
2023/06/20 02:30:15;;;;;;;3.70;3.40;;;19.60;99.90;;;;;;5010949;28;20858;-82
2023/06/20 02:32:42;;;;;;;3.67;3.28;;;19.60;99.90;;;;;;5008320;28;20089;-81
2023/06/20 02:35:10;;;;;;;6.32;3.67;;;19.60;99.90;;;;;;5005290;28;20026;-82
2023/06/20 02:37:37;;;;;;;4.22;3.42;;;19.50;99.90;;;;;;5009475;28;20454;-82
2023/06/20 02:40:05;;;;;;;4.38;3.28;;;19.50;99.90;;;;;;5009883;28;20110;-81
2023/06/20 02:42:31;;;;;;;3.65;3.35;;;19.40;99.90;;;;;;4999830;28;20026;-81
2023/06/20 02:44:56;;;;;;;7.25;3.15;;;19.40;99.90;;;;;;5006733;28;20502;-82
2023/06/20 02:47:40;;;;;;;3.92;3.08;;;19.40;99.90;;;;;;5007810;28;20027;-82
2023/06/20 02:50:29;;;;;;;3.60;3.30;;;19.40;99.90;;;;;;5000346;28;20037;-81
2023/06/20 02:53:09;;;;;;;5.85;3.60;;;19.40;99.90;;;;;;5006813;28;20034;-81
2023/06/20 02:55:52;;;;;;;3.97;3.55;;;19.30;99.90;;;;;;5004105;28;20516;-81
2023/06/20 02:58:21;;;;;;;3.80;3.42;;;19.30;99.90;;;;;;5007069;28;20503;-82
2023/06/20 03:00:49;;;;;;;3.20;3.00;;;19.30;99.90;;;;;;5001123;28;20040;-82
2023/06/20 03:03:25;;;;;;;6.63;3.67;;;19.30;99.90;;;;;;5006008;28;20026;-82
2023/06/20 03:05:56;;;;;;;3.88;3.50;;;19.20;99.90;;;;;;4995373;28;20522;-82
2023/06/20 03:08:27;;;;;;;4.05;3.70;;;19.20;99.90;;;;;;5004010;28;20443;-82
2023/06/20 03:10:54;;;;;;;5.32;3.88;;;19.10;99.90;;;;;;5007739;28;20041;-81
2023/06/20 03:13:21;;;;;;;3.50;3.20;;;19.10;99.90;;;;;;5002594;28;20125;-81
2023/06/20 03:15:49;;;;;;;3.95;2.70;;;19.00;99.90;;;;;;5004046;28;20545;-82
2023/06/20 03:18:17;;;;;;;3.13;2.83;;;19.10;99.90;;;;;;5002857;28;20061;-81
2023/06/20 03:20:44;;;;;;;3.38;3.08;;;19.10;99.90;;;;;;5007469;28;20034;-81
2023/06/20 03:23:09;;;;;;;6.35;3.70;;;19.20;99.90;;;;;;5005245;28;20133;-82
2023/06/20 03:25:35;;;;;;;3.70;3.40;;;19.20;99.90;;;;;;4991475;28;20129;-82
2023/06/20 03:28:01;;;;;;;3.50;3.20;;;19.20;99.90;;;;;;4998464;28;20030;-81
2023/06/20 03:30:26;;;;;;;3.65;3.35;;;19.20;99.90;;;;;;5008209;28;20387;-82
2023/06/20 03:32:52;;;;;;;4.30;3.20;;;19.30;99.90;;;;;;5002407;28;20571;-82
2023/06/20 03:35:17;;;;;;;3.88;3.05;;;19.30;99.90;;;;;;5003299;28;20064;-82
2023/06/20 03:37:43;;;;;;;3.50;3.20;;;19.40;99.90;;;;;;5007295;28;20029;-81
2023/06/20 03:40:11;;;;;;;3.95;3.22;;;19.40;99.90;;;;;;5008482;28;20499;-81
2023/06/20 03:42:37;;;;;;;8.27;4.13;;;19.50;99.90;;;;;;5001657;28;20430;-81
2023/06/20 03:45:03;;;;;;;5.38;4.20;;;19.60;99.90;;;;;;5006539;28;20164;-81
2023/06/20 03:47:28;;;;;;;4.22;3.83;;;19.60;99.90;;;;;;5011010;28;20028;-81
2023/06/20 03:49:54;;;;;;;4.40;4.00;;;19.60;99.90;;;;;;4991953;28;20383;-82
2023/06/20 03:52:20;;;;;;;4.75;3.78;;;19.70;99.90;;;;;;5009125;28;20029;-83
2023/06/20 03:54:45;;;;;;;4.57;3.55;;;19.70;99.90;;;;;;5008032;28;20050;-81
2023/06/20 03:57:11;;;;;;;3.67;3.38;;;19.80;99.90;;;;;;5008031;28;20018;-81
2023/06/20 03:59:39;;;;;;;5.07;4.20;;;19.80;99.90;;;;;;5007258;28;20042;-81
2023/06/20 04:02:05;;;;;;;4.63;4.22;;;19.90;99.90;;;;;;5011825;28;20551;-82
2023/06/20 04:04:30;;;;;;;5.05;4.55;;;19.90;99.90;;;;;;5011529;28;20150;-81
2023/06/20 04:06:56;;;;;;;4.13;3.80;;;19.90;99.90;;;;;;5012925;28;20607;-81
2023/06/20 04:09:26;;;;;;;4.28;3.88;;;20.00;99.90;;;;;;5007620;28;20095;-82
2023/06/20 04:11:54;;;;;;;4.82;4.30;;;20.00;99.90;;;;;;5009491;28;20084;-81
2023/06/20 04:14:20;;;;;;;5.75;4.55;;;20.00;99.90;;;;;;5011817;28;20022;-81
2023/06/20 04:16:47;;;;;;;7.43;4.53;;;20.00;99.90;;;;;;5007877;28;20505;-81
2023/06/20 04:19:14;;;;;;;8.13;4.05;;;20.00;99.90;;;;;;5000355;28;20041;-81
2023/06/20 04:21:40;;;;;;;4.68;4.00;;;20.00;99.90;;;;;;4988097;28;20030;-81
2023/06/20 04:24:06;;;;;;;3.70;3.40;;;20.00;99.90;;;;;;5004661;28;20033;-81
2023/06/20 04:26:31;;;;;;;4.57;3.58;;;20.00;99.90;;;;;;5009337;28;20029;-81
2023/06/20 04:28:57;;;;;;;4.10;3.70;;;20.00;99.90;;;;;;4998545;28;20037;-82
2023/06/20 04:31:23;;;;;;;5.65;3.88;;;20.00;99.90;;;;;;5006441;28;20038;-81
2023/06/20 04:33:48;;;;;;;4.57;3.55;;;20.00;99.90;;;;;;4982106;28;20021;-80
2023/06/20 04:36:14;;;;;;;6.35;4.10;;;20.10;99.90;;;;;;5014872;28;20070;-81
2023/06/20 04:38:44;;;;;;;6.32;4.53;;;20.10;99.90;;;;;;5003901;28;20025;-80
2023/06/20 04:41:10;;;;;;;5.25;4.75;;;20.00;99.90;;;;;;5005457;28;20117;-81
2023/06/20 04:43:36;;;;;;;7.90;4.82;;;20.10;99.90;;;;;;5005086;28;20128;-81
2023/06/20 04:46:03;;;;;;;4.57;4.18;;;20.00;99.90;;;;;;4994929;28;20073;-81
2023/06/20 04:48:29;;;;;;;4.15;3.75;;;20.00;99.90;;;;;;5000151;28;20037;-81
2023/06/20 04:50:56;;;;;;;11.43;5.10;;;20.00;99.90;;;;;;5004046;28;20403;-81
2023/06/20 04:53:23;;;;;;;4.90;4.15;;;19.90;99.90;;;;;;5008641;28;20034;-82
2023/06/20 04:55:49;;;;;;;5.35;4.82;;;19.90;99.90;;;;;;5014774;28;20050;-83
2023/06/20 04:58:15;;;;;;;8.00;5.47;;;19.90;99.90;;;;;;5007770;28;20038;-81
2023/06/20 05:00:40;;;;;;;8.60;5.25;;;19.80;99.90;;;;;;5009485;28;20046;-81
2023/06/20 05:03:06;;;;;;;7.05;5.18;;;19.80;99.90;;;;;;4991144;28;20439;-80
2023/06/20 05:05:32;;;;;;;6.50;5.00;;;19.80;99.90;;;;;;4997572;28;20037;-81
2023/06/20 05:07:57;;;;;;;5.75;4.82;;;19.70;99.90;;;;;;5014155;28;20054;-80
2023/06/20 05:10:23;;;;;;;6.70;5.57;;;19.70;99.90;;;;;;5010562;28;20045;-80
2023/06/20 05:12:49;;;;;;;7.32;6.07;;;19.60;99.90;;;;;;5014209;28;20049;-81
2023/06/20 05:15:14;;;;;;;6.63;5.25;;;19.50;99.90;;;;;;5014267;28;20103;-80
2023/06/20 05:17:40;;;;;;;5.93;4.68;;;19.50;99.90;;;;;;5014122;28;20026;-80
2023/06/20 05:20:06;;;;;;;6.65;5.95;;;19.40;99.90;;;;;;5008517;28;20048;-80
2023/06/20 05:22:35;;;;;;;7.25;5.90;;;19.40;99.90;;;;;;5009515;28;20234;-80
2023/06/20 05:25:01;;;;;;;8.75;6.47;;;19.40;99.90;;;;;;5005620;28;20033;-80
2023/06/20 05:27:27;;;;;;;10.65;6.35;;;19.40;99.90;;;;;;5017479;28;20045;-80
2023/06/20 05:29:52;;;;;;;9.65;6.50;;;19.40;99.90;;;;;;5004508;28;20030;-82
2023/06/20 05:32:18;;;;;;;18.50;7.63;;;19.40;99.90;;;;;;5009093;28;20037;-81
2023/06/20 05:34:44;;;;;;;16.77;8.48;;;19.30;99.90;;;;;;5011810;28;20030;-80
2023/06/20 05:37:10;;;;;;;16.40;9.85;;;19.20;99.90;;;;;;5014882;28;20045;-81
2023/06/20 05:39:35;;;;;;;17.00;9.77;;;19.10;99.90;;;;;;5014939;28;20038;-80
2023/06/20 05:42:01;;;;;;;21.52;9.73;;;19.00;99.90;;;;;;5009448;28;20029;-82
2023/06/20 05:44:27;;;;;;;9.80;7.85;;;19.00;99.90;;;;;;5008133;28;20022;-83
2023/06/20 05:46:53;;;;;;;13.18;8.13;;;18.90;99.90;;;;;;5015517;28;20037;-81
2023/06/20 05:49:21;;;;;;;18.52;10.10;;;18.90;99.90;;;;;;5000479;28;20033;-82
2023/06/20 05:51:47;;;;;;;21.77;8.93;;;18.90;99.90;;;;;;5009280;28;20108;-81
2023/06/20 05:54:13;;;;;;;14.65;9.65;;;18.90;99.90;;;;;;5013293;28;20084;-81
2023/06/20 05:56:39;;;;;;;12.45;8.27;;;18.80;99.90;;;;;;4999821;28;20358;-80
2023/06/20 05:59:05;;;;;;;13.18;7.70;;;18.80;99.90;;;;;;5004725;28;20041;-81
2023/06/20 06:01:31;;;;;;;12.45;7.88;;;18.80;99.90;;;;;;5008338;28;20109;-80
2023/06/20 06:03:56;;;;;;;13.10;8.18;;;18.90;99.90;;;;;;5008906;28;20434;-81
2023/06/20 06:06:24;;;;;;;16.75;10.18;;;18.90;99.90;;;;;;5010098;28;20490;-82
2023/06/20 06:08:50;;;;;;;11.65;8.85;;;18.90;99.90;;;;;;5005283;28;20091;-81
2023/06/20 06:11:16;;;;;;;14.73;8.63;;;18.90;99.90;;;;;;5015772;28;20081;-82
2023/06/20 06:13:42;;;;;;;14.63;9.77;;;18.90;99.90;;;;;;5018340;28;20494;-82
2023/06/20 06:16:08;;;;;;;16.58;9.85;;;18.90;99.90;;;;;;5009214;28;20030;-81
2023/06/20 06:18:33;;;;;;;12.00;9.90;;;18.90;99.90;;;;;;5007791;28;20091;-86
2023/06/20 06:20:59;;;;;;;11.68;9.55;;;18.90;99.90;;;;;;5007962;28;20038;-82
2023/06/20 06:23:25;;;;;;;18.80;9.65;;;18.90;99.90;;;;;;5007180;28;20041;-82
2023/06/20 06:25:52;;;;;;;12.23;8.90;;;18.80;99.90;;;;;;5006013;28;20445;-83
2023/06/20 06:28:18;;;;;;;14.40;8.45;;;18.70;99.90;;;;;;5008839;28;20033;-82
2023/06/20 06:30:43;;;;;;;16.77;10.40;;;18.70;99.90;;;;;;5013368;28;20018;-82
2023/06/20 06:33:10;;;;;;;15.05;9.75;;;18.70;99.90;;;;;;5006581;28;20029;-83
2023/06/20 06:35:35;;;;;;;10.23;9.13;;;18.70;99.90;;;;;;4998201;28;20034;-83
2023/06/20 06:38:03;;;;;;;17.23;9.15;;;18.70;99.90;;;;;;5014339;28;20026;-84
2023/06/20 06:40:29;;;;;;;9.40;8.38;;;18.70;99.90;;;;;;5007494;28;20046;-83
2023/06/20 06:42:54;;;;;;;15.68;9.98;;;18.70;99.90;;;;;;5006923;28;20533;-82
2023/06/20 06:45:20;;;;;;;12.18;8.68;;;18.70;99.90;;;;;;5009828;28;20026;-83
2023/06/20 06:47:45;;;;;;;15.05;7.57;;;18.70;99.90;;;;;;5004020;28;20022;-83
2023/06/20 06:50:11;;;;;;;15.15;8.75;;;18.70;99.90;;;;;;5006598;28;20419;-83
2023/06/20 06:52:39;;;;;;;11.18;8.57;;;18.70;99.90;;;;;;5001678;28;20109;-83
2023/06/20 06:55:05;;;;;;;14.77;9.75;;;18.70;99.90;;;;;;5009602;28;20072;-83
2023/06/20 06:57:31;;;;;;;14.60;9.05;;;18.70;99.90;;;;;;5011488;28;20026;-83
2023/06/20 06:59:57;;;;;;;15.98;9.65;;;18.70;99.90;;;;;;5004861;28;20029;-83
2023/06/20 07:02:22;;;;;;;13.75;9.95;;;18.60;99.90;;;;;;5008726;28;20025;-83
2023/06/20 07:04:51;;;;;;;12.10;8.63;;;18.70;99.90;;;;;;5000902;28;20120;-83
2023/06/20 07:07:16;;;;;;;12.80;9.02;;;18.60;99.90;;;;;;5005014;28;20037;-81
2023/06/20 07:09:42;;;;;;;17.10;8.48;;;18.60;99.90;;;;;;5012691;28;20079;-81
2023/06/20 07:12:07;;;;;;;14.93;9.30;;;18.70;99.90;;;;;;5007245;28;20038;-81
2023/06/20 07:14:33;;;;;;;13.43;8.07;;;18.60;99.90;;;;;;4993039;28;20045;-81
2023/06/20 07:16:59;;;;;;;19.45;11.15;;;18.60;99.90;;;;;;5007173;28;20058;-82
2023/06/20 07:19:25;;;;;;;16.63;9.60;;;18.60;99.90;;;;;;5005035;28;20507;-80
2023/06/20 07:21:51;;;;;;;15.93;9.30;;;18.60;99.90;;;;;;5006940;28;20060;-81
2023/06/20 07:24:16;;;;;;;16.88;11.63;;;18.60;99.90;;;;;;5000901;28;20424;-81
2023/06/20 07:26:51;;;;;;;20.42;10.02;;;18.60;99.90;;;;;;5021493;28;20438;-81
2023/06/20 07:29:17;;;;;;;14.83;9.10;;;18.60;99.90;;;;;;4992351;28;20025;-81
2023/06/20 07:31:42;;;;;;;15.98;9.35;;;18.60;99.90;;;;;;5007697;28;20048;-81
2023/06/20 07:34:08;;;;;;;15.30;9.50;;;18.50;99.90;;;;;;4995075;28;20395;-81
2023/06/20 07:36:34;;;;;;;14.98;10.40;;;18.60;99.90;;;;;;5010710;28;20475;-81
2023/06/20 07:39:00;;;;;;;15.55;9.57;;;18.60;99.90;;;;;;5018076;28;20038;-82
2023/06/20 07:41:25;;;;;;;17.73;12.07;;;18.60;99.90;;;;;;5013560;28;20045;-81
2023/06/20 07:43:51;;;;;;;17.02;10.73;;;18.60;99.90;;;;;;5017139;28;20259;-81
2023/06/20 07:46:16;;;;;;;15.60;10.57;;;18.60;99.90;;;;;;5015529;28;20392;-81
2023/06/20 07:48:43;;;;;;;12.57;11.07;;;18.60;99.90;;;;;;5017110;28;20415;-81
2023/06/20 07:51:09;;;;;;;19.50;13.40;;;18.60;99.90;;;;;;5017810;28;20030;-81
2023/06/20 07:53:34;;;;;;;18.98;14.23;;;18.60;99.90;;;;;;5011737;28;20049;-83
2023/06/20 07:56:00;;;;;;;19.60;12.27;;;18.60;99.90;;;;;;5008997;28;20148;-82
2023/06/20 07:58:26;;;;;;;19.48;13.15;;;18.60;99.90;;;;;;5003842;28;20068;-81
2023/06/20 08:00:52;;;;;;;16.60;12.55;;;18.60;99.90;;;;;;5007965;28;20034;-81
2023/06/20 08:03:21;;;;;;;13.35;11.75;;;18.60;99.90;;;;;;5010724;28;20040;-81
2023/06/20 08:05:47;;;;;;;12.68;10.13;;;18.60;99.90;;;;;;4994392;28;20041;-81
2023/06/20 08:08:12;;;;;;;11.65;9.70;;;18.60;99.90;;;;;;5009194;28;20041;-81
2023/06/20 08:10:38;;;;;;;11.55;9.65;;;18.70;99.90;;;;;;5013565;28;20030;-82
2023/06/20 08:13:03;;;;;;;10.75;9.60;;;18.70;99.90;;;;;;5009549;28;20073;-81
2023/06/20 08:15:29;;;;;;;11.75;9.80;;;18.70;99.90;;;;;;5006458;28;20494;-81
2023/06/20 08:17:54;;;;;;;13.57;10.07;;;18.80;99.90;;;;;;5010499;28;20514;-81
2023/06/20 08:20:20;;;;;;;13.43;10.73;;;18.80;99.90;;;;;;5012115;28;20102;-81
2023/06/20 08:22:46;;;;;;;13.00;11.60;;;18.90;99.90;;;;;;4987691;28;20034;-83
2023/06/20 08:25:11;;;;;;;16.95;15.02;;;18.90;99.90;;;;;;5009686;28;20536;-81
2023/06/20 08:27:37;;;;;;;16.42;13.52;;;18.90;99.90;;;;;;5006733;28;20038;-81
2023/06/20 08:30:03;;;;;;;15.65;13.93;;;18.90;99.90;;;;;;5006439;28;20034;-82
2023/06/20 08:32:28;;;;;;;23.73;18.65;;;19.00;99.90;;;;;;5007189;28;20058;-82
2023/06/20 08:34:54;;;;;;;23.52;18.05;;;19.00;99.90;;;;;;5011736;28;20061;-82
2023/06/20 08:37:23;;;;;;;22.88;18.10;;;19.00;99.90;;;;;;5008683;28;20177;-84
2023/06/20 08:39:49;;;;;;;28.92;23.70;;;19.00;99.90;;;;;;5009524;28;20057;-83
2023/06/20 08:42:14;;;;;;;26.35;20.80;;;19.00;99.90;;;;;;5010389;28;20042;-82
2023/06/20 08:44:40;;;;;;;31.83;25.55;;;19.10;99.90;;;;;;5009988;28;20145;-82
2023/06/20 08:47:06;;;;;;;27.38;22.80;;;19.10;99.90;;;;;;5008999;28;20342;-83
2023/06/20 08:49:31;;;;;;;31.58;23.95;;;19.10;99.90;;;;;;5008870;28;20026;-83
2023/06/20 08:52:02;;;;;;;25.50;21.38;;;19.10;99.90;;;;;;5009794;28;20022;-83
2023/06/20 08:54:32;;;;;;;33.60;27.08;;;19.20;99.90;;;;;;5010145;28;20395;-83
2023/06/20 08:56:59;;;;;;;35.33;27.42;;;19.30;99.90;;;;;;5009890;28;20026;-83
2023/06/20 08:59:25;;;;;;;45.95;30.13;;;19.30;99.90;;;;;;5008574;28;20096;-84
2023/06/20 09:01:51;;;;;;;34.70;28.75;;;19.40;99.90;;;;;;5009931;28;20451;-83
2023/06/20 09:04:18;;;;;;;33.03;26.85;;;19.50;99.90;;;;;;5010384;28;20033;-86
2023/06/20 09:06:43;;;;;;;29.45;24.88;;;19.60;99.90;;;;;;5010310;28;20034;-84
2023/06/20 09:09:16;;;;;;;24.52;20.77;;;19.60;99.90;;;;;;5009278;28;20037;-84
2023/06/20 09:11:52;;;;;;;28.50;24.63;;;19.70;99.90;;;;;;5004386;28;20030;-83
2023/06/20 09:14:18;;;;;;;24.48;21.80;;;19.70;99.90;;;;;;5009028;28;20017;-85
2023/06/20 09:16:48;;;;;;;27.63;22.60;;;19.70;99.90;;;;;;5009726;28;20030;-84
2023/06/20 09:19:14;;;;;;;26.90;20.10;;;19.80;99.90;;;;;;5009294;28;20465;-84
2023/06/20 09:21:39;;;;;;;22.33;19.90;;;19.80;99.90;;;;;;5009381;28;20053;-85
2023/06/20 09:24:06;;;;;;;23.13;20.70;;;19.80;99.90;;;;;;4992018;28;20393;-85
2023/06/20 09:26:33;;;;;;;23.52;20.58;;;19.80;99.90;;;;;;5009204;28;20080;-86
2023/06/20 09:29:10;;;;;;;22.17;19.88;;;19.80;99.90;;;;;;5008821;28;20045;-87
2023/06/20 09:31:42;;;;;;;21.75;18.65;;;19.80;99.90;;;;;;5004420;28;20065;-86
2023/06/20 09:34:13;;;;;;;23.23;20.17;;;19.80;99.90;;;;;;5008701;28;20048;-86
2023/06/20 09:36:41;;;;;;;21.05;16.95;;;19.90;99.90;;;;;;5008940;28;20026;-87
2023/06/20 09:39:20;;;;;;;21.38;18.10;;;19.90;99.90;;;;;;5008703;28;20144;-87
2023/06/20 09:41:51;;;;;;;20.65;18.35;;;19.90;99.90;;;;;;5018127;28;20112;-87
2023/06/20 09:44:17;;;;;;;21.30;17.08;;;19.90;99.90;;;;;;5003431;28;20040;-87
2023/06/20 09:46:43;;;;;;;20.50;17.17;;;20.00;99.90;;;;;;5008914;28;20418;-88
2023/06/20 09:49:12;;;;;;;19.45;17.23;;;20.00;99.90;;;;;;5008428;28;20034;-88
2023/06/20 09:51:44;;;;;;;21.48;18.23;;;20.00;99.90;;;;;;5008779;28;20077;-88
2023/06/20 09:54:12;;;;;;;17.35;15.43;;;20.10;99.90;;;;;;5008097;28;20053;-88
2023/06/20 09:56:50;;;;;;;23.20;17.85;;;20.20;99.90;;;;;;5008036;28;20243;-88
2023/06/20 09:59:16;;;;;;;15.93;14.23;;;20.30;99.90;;;;;;5012613;28;20048;-88
2023/06/20 10:01:42;;;;;;;14.20;12.48;;;20.40;99.90;;;;;;5004167;28;20089;-89
2023/06/20 10:04:08;;;;;;;15.95;13.05;;;20.50;99.90;;;;;;5007108;28;20503;-89
2023/06/20 10:06:37;;;;;;;13.90;11.63;;;20.60;99.90;;;;;;5002697;28;20434;-88
2023/06/20 10:09:07;;;;;;;14.05;11.35;;;20.70;99.90;;;;;;5004318;28;20045;-88
2023/06/20 10:11:38;;;;;;;15.52;12.70;;;20.80;99.90;;;;;;5010136;28;20054;-88
2023/06/20 10:14:05;;;;;;;14.40;11.68;;;20.90;99.90;;;;;;5007920;28;20030;-88
2023/06/20 10:16:31;;;;;;;10.52;9.18;;;20.90;99.90;;;;;;5007683;28;20029;-89
2023/06/20 10:18:56;;;;;;;20.25;10.25;;;21.00;99.90;;;;;;5002551;28;20041;-89
2023/06/20 10:21:57;;;;;;;12.70;10.63;;;21.00;99.90;;;;;;5007235;28;20038;-88
2023/06/20 10:24:26;;;;;;;12.00;9.00;;;21.00;99.90;;;;;;5009139;28;20468;-89
2023/06/20 10:26:54;;;;;;;9.65;8.75;;;21.00;99.90;;;;;;5007920;28;20354;-88
2023/06/20 10:29:21;;;;;;;9.80;8.80;;;21.00;99.90;;;;;;5009521;28;20040;-88
2023/06/20 10:32:06;;;;;;;10.15;7.70;;;21.00;99.90;;;;;;5009116;28;20032;-88
2023/06/20 10:34:36;;;;;;;9.77;8.63;;;21.10;99.90;;;;;;5008957;28;20022;-88
2023/06/20 10:37:16;;;;;;;9.55;7.88;;;21.10;99.90;;;;;;5010346;28;20116;-87
2023/06/20 10:39:55;;;;;;;9.27;7.45;;;21.10;99.90;;;;;;4998025;28;20079;-87
2023/06/20 10:42:41;;;;;;;7.88;7.07;;;21.20;99.90;;;;;;5004142;28;20022;-87
2023/06/20 10:45:16;;;;;;;8.85;7.93;;;21.20;99.90;;;;;;5013254;28;20376;-87
2023/06/20 10:47:42;;;;;;;15.93;7.82;;;21.20;99.90;;;;;;5005650;28;20475;-86
2023/06/20 10:50:08;;;;;;;8.13;7.32;;;21.30;99.90;;;;;;5010302;28;20121;-86
2023/06/20 10:52:35;;;;;;;14.55;7.25;;;21.40;99.90;;;;;;5010183;28;20061;-86
2023/06/20 10:55:02;;;;;;;8.65;7.57;;;21.50;99.90;;;;;;5010375;28;20034;-87
2023/06/20 10:57:29;;;;;;;7.10;6.38;;;21.60;99.90;;;;;;5002494;28;20032;-85
2023/06/20 10:59:55;;;;;;;10.32;6.43;;;21.60;99.90;;;;;;5011444;28;20041;-84
2023/06/20 11:02:20;;;;;;;6.80;5.63;;;21.70;99.90;;;;;;5010850;28;20498;-85
2023/06/20 11:04:50;;;;;;;6.30;5.47;;;21.70;99.90;;;;;;5010319;28;20026;-86
2023/06/20 11:07:16;;;;;;;5.10;4.50;;;21.80;99.90;;;;;;5008228;28;20092;-87
2023/06/20 11:09:41;;;;;;;10.40;5.55;;;21.90;99.90;;;;;;5009568;28;20022;-85
2023/06/20 11:12:10;;;;;;;6.47;5.72;;;22.00;99.90;;;;;;5010683;28;20026;-85
2023/06/20 11:14:36;;;;;;;7.95;6.30;;;22.00;99.90;;;;;;5014216;28;20037;-85
2023/06/20 11:17:01;;;;;;;6.70;6.10;;;22.10;99.90;;;;;;5008052;28;20034;-85
2023/06/20 11:19:27;;;;;;;9.20;6.45;;;22.20;99.90;;;;;;5009695;28;20510;-85
2023/06/20 11:21:53;;;;;;;5.47;4.97;;;22.20;99.90;;;;;;5000288;28;20405;-84
2023/06/20 11:24:20;;;;;;;6.20;5.60;;;22.20;99.90;;;;;;5003742;28;20045;-85
2023/06/20 11:26:46;;;;;;;8.13;5.60;;;22.30;99.90;;;;;;5001548;28;20502;-84
2023/06/20 11:29:12;;;;;;;7.03;5.35;;;22.40;99.90;;;;;;5010115;28;20112;-85
2023/06/20 11:31:40;;;;;;;5.20;4.70;;;22.50;99.90;;;;;;5011971;28;20116;-84
2023/06/20 11:34:07;;;;;;;5.93;5.18;;;22.60;99.90;;;;;;5003159;28;20026;-86
2023/06/20 11:36:37;;;;;;;12.02;6.25;;;22.60;99.90;;;;;;5004457;28;20030;-85
2023/06/20 11:39:12;;;;;;;7.88;5.40;;;22.60;99.90;;;;;;5006950;28;20052;-86
2023/06/20 11:41:38;;;;;;;9.27;5.60;;;22.60;99.90;;;;;;5003008;28;20121;-85
2023/06/20 11:44:04;;;;;;;7.50;5.70;;;22.60;99.90;;;;;;5000055;28;20098;-86
2023/06/20 11:46:30;;;;;;;6.20;5.60;;;22.60;99.90;;;;;;5004173;28;20030;-85
2023/06/20 11:48:59;;;;;;;6.40;5.80;;;22.60;99.90;;;;;;5006693;28;20026;-85
2023/06/20 11:51:26;;;;;;;7.70;5.65;;;22.70;99.90;;;;;;5011580;28;20030;-85
2023/06/20 11:54:04;;;;;;;7.35;5.47;;;22.70;99.90;;;;;;5009874;28;20421;-86
2023/06/20 11:56:30;;;;;;;6.30;5.05;;;22.80;99.90;;;;;;5003607;28;21204;-86
2023/06/20 11:58:55;;;;;;;6.70;5.72;;;22.90;99.90;;;;;;5003157;28;20029;-85
2023/06/20 12:01:23;;;;;;;10.38;5.07;;;22.80;99.90;;;;;;4984677;28;20034;-85
2023/06/20 12:04:07;;;;;;;7.07;4.60;;;22.90;99.90;;;;;;5002995;28;20185;-85
2023/06/20 12:06:39;;;;;;;6.78;4.85;;;22.90;99.90;;;;;;5009885;28;20080;-86
2023/06/20 12:09:13;;;;;;;8.90;4.93;;;23.00;99.90;;;;;;5013117;28;20113;-85
2023/06/20 12:11:55;;;;;;;6.28;4.70;;;23.20;99.90;;;;;;5010160;28;20081;-85
2023/06/20 12:14:23;;;;;;;9.95;4.63;;;23.30;99.90;;;;;;5004971;28;20332;-85
2023/06/20 12:16:49;;;;;;;5.05;3.85;;;23.40;99.90;;;;;;5008556;28;20026;-86
2023/06/20 12:19:15;;;;;;;6.57;5.13;;;23.50;99.90;;;;;;5010991;28;20046;-85
2023/06/20 12:21:42;;;;;;;4.63;4.22;;;23.60;99.90;;;;;;5012334;28;20030;-85
2023/06/20 12:24:08;;;;;;;4.85;4.30;;;23.70;99.90;;;;;;5009640;28;20037;-85
2023/06/20 12:26:34;;;;;;;3.97;3.58;;;23.70;99.90;;;;;;5007069;28;20350;-86
2023/06/20 12:29:00;;;;;;;4.40;3.80;;;23.80;99.90;;;;;;4997378;28;20038;-85
2023/06/20 12:31:26;;;;;;;3.65;3.35;;;23.80;99.90;;;;;;5002235;28;20031;-84
2023/06/20 12:33:51;;;;;;;6.63;4.35;;;23.80;99.90;;;;;;4998684;28;20058;-84
2023/06/20 12:36:17;;;;;;;5.05;3.90;;;23.70;99.90;;;;;;5003207;28;20025;-85
2023/06/20 12:38:43;;;;;;;5.25;4.25;;;23.60;99.90;;;;;;5003691;28;20073;-84
2023/06/20 12:41:10;;;;;;;5.45;4.25;;;23.70;99.90;;;;;;4995952;28;20049;-85
2023/06/20 12:43:36;;;;;;;5.15;4.68;;;23.60;99.90;;;;;;5001939;28;20057;-84